createdAt,value
2016-07-09T00:00:10.886Z,15.8
2016-07-09T00:15:02.187Z,15.7
2016-07-09T00:30:06.516Z,15.5
2016-07-09T00:45:06.863Z,15.4
2016-07-09T01:00:02.217Z,15.3
2016-07-09T01:15:06.797Z,15.3
2016-07-09T01:30:02.206Z,15.2
2016-07-09T01:45:07.291Z,15.1
2016-07-09T02:00:16.657Z,15.2
2016-07-09T02:15:06.934Z,15.3
2016-07-09T02:30:06.814Z,15.3
2016-07-09T02:45:07.216Z,15.1
2016-07-09T03:00:02.241Z,14.9
2016-07-09T03:15:13.057Z,14.8
2016-07-09T03:30:15.279Z,14.7
2016-07-09T03:45:06.902Z,14.7
2016-07-09T04:00:06.837Z,14.6
2016-07-09T04:15:06.856Z,14.6
2016-07-09T04:30:08.578Z,14.6
2016-07-09T04:45:02.265Z,14.6
2016-07-09T05:00:04.333Z,14.7
2016-07-09T05:15:13.556Z,14.9
2016-07-09T05:30:06.676Z,15.1
2016-07-09T05:45:13.645Z,15.3
2016-07-09T06:00:06.942Z,15.5
2016-07-09T06:15:09.345Z,15.7
2016-07-09T06:30:13.215Z,15.9
2016-07-09T06:45:10.726Z,16.1
2016-07-09T07:00:02.294Z,16.6
2016-07-09T07:15:02.329Z,17.6
2016-07-09T07:30:08.626Z,18.1
2016-07-09T07:45:08.639Z,18.5
2016-07-09T08:00:08.657Z,18.6
2016-07-09T08:15:15.409Z,18.8
2016-07-09T08:30:08.537Z,18.8
2016-07-09T08:45:06.938Z,18.6
2016-07-09T09:00:06.937Z,19.1
2016-07-09T09:15:08.656Z,19.4
2016-07-09T09:30:15.393Z,20.2
2016-07-09T09:45:06.937Z,20.9
2016-07-09T10:00:02.356Z,20.7
2016-07-09T10:15:13.748Z,19.6
2016-07-09T10:30:02.364Z,19.9
2016-07-09T10:45:02.404Z,20.7
2016-07-09T11:00:07.005Z,20.1
2016-07-09T11:15:06.966Z,21.1
2016-07-09T11:30:02.386Z,21.8
2016-07-09T11:45:07.031Z,22
2016-07-09T12:00:02.461Z,22.2
2016-07-09T12:15:08.624Z,22
2016-07-09T12:30:06.999Z,22.6
2016-07-09T12:45:08.761Z,22.6
2016-07-09T13:00:06.517Z,21.9
2016-07-09T13:15:13.753Z,21.9
2016-07-09T13:30:02.416Z,21.9
2016-07-09T13:45:07.018Z,21.6
2016-07-09T14:00:02.475Z,21.3
2016-07-09T14:15:05.760Z,21.9
2016-07-09T14:30:07.048Z,21.9
2016-07-09T14:45:09.072Z,21.6
2016-07-09T15:00:13.746Z,21.9
2016-07-09T15:15:07.052Z,22.2
2016-07-09T15:30:02.463Z,22.3
2016-07-09T15:45:04.472Z,22.3
2016-07-09T16:00:02.473Z,22
2016-07-09T16:15:06.887Z,22
2016-07-09T16:30:04.491Z,21.8
2016-07-09T16:45:04.503Z,21.7
2016-07-09T17:00:07.083Z,21.5
2016-07-09T17:15:07.129Z,21.4
2016-07-09T17:30:07.095Z,21.3
2016-07-09T17:45:07.114Z,21.2
2016-07-09T18:00:08.834Z,21
2016-07-09T18:15:08.891Z,20.8
2016-07-09T18:30:19.914Z,20.8
2016-07-09T18:45:07.143Z,20.7
2016-07-09T19:00:07.184Z,20.5
2016-07-09T19:15:07.167Z,20.4
2016-07-09T19:30:02.626Z,20.3
2016-07-09T19:45:02.592Z,20.3
2016-07-09T20:00:02.603Z,20.2
2016-07-09T20:15:02.612Z,20
2016-07-09T20:30:08.880Z,19.9
2016-07-09T20:45:02.623Z,19.8
2016-07-09T21:00:04.723Z,19.5
2016-07-09T21:15:09.694Z,19.1
2016-07-09T21:30:09.728Z,18.9
2016-07-09T21:45:07.227Z,18.7
2016-07-09T22:00:07.224Z,18.5
2016-07-09T22:15:07.233Z,18.2
2016-07-09T22:30:09.004Z,18
2016-07-09T22:45:07.295Z,18
2016-07-09T23:00:04.655Z,18
2016-07-09T23:15:02.656Z,17.9
2016-07-09T23:30:07.605Z,17.8
2016-07-09T23:45:07.310Z,17.8
